Woodmoor, Colorado
Current Conditions -  °F | °C
As of 5:58 PM on Thursday 27 Nov 2014 (Local Time) from KAFF Reporting Station
Clear Clear  
Wind Chill: 56°   Ceiling: Unl
Heat Index: 56°   Visibility: 10mi
Dew Point: 13°   Wind: 15mph
Humidity: 18%   Direction: 290°WNW
Pressure: 30.19"   Gusts: 26mph
Location:  39.0574°N, 104.903°W
Report Text: KAFF 280058Z AUTO 29013G23KT 10SM CLR 14/M10 A3019 RMK AO2 SLP202 T01351104
Loading
Personal Weather Stations






























Interactive Weather Map New forecast layout! Learn more

10-Day Weather Forecast

Advertisements
Track Severe Weather on mobile